SIS55 KAPF-KIAD
Flight info
| Callsign | SIS55 |
|---|---|
| Flight time | N/A |
| Altitude | 47000 |
| Route | CSHEL8 TOLLZ DUCEN Q87 VIYAP SUSYQ Q87 ALWZZ OGRAE BZNGA DORRN CAVLR6 |
| Aircraft | GLF5/M-VGDW/C |
Departure
| Time | 2026-04-12 21:34 |
|---|---|
| Airport | Naples Municipal Airport (KAPF) |
Arrival
| Time | N/A |
|---|---|
| Airport | Washington Dulles International Airport (KIAD) |
| Time | Latitude | Longitude | Altitude | Speed | Heading |
|---|---|---|---|---|---|
| 2026-04-12 21:29 | 26.15324 | -81.77167 | 8 ft | 0 kts | 270° |
| 2026-04-12 21:31 | 26.15324 | -81.77168 | 8 ft | 0 kts | 270° |
| 2026-04-12 21:31 | 26.15314 | -81.77222 | 8 ft | 14 kts | 257° |
| 2026-04-12 21:31 | 26.15278 | -81.77346 | 8 ft | 16 kts | 180° |
| 2026-04-12 21:32 | 26.15231 | -81.77294 | 8 ft | 8 kts | 128° |
| 2026-04-12 21:32 | 26.15167 | -81.77214 | 8 ft | 18 kts | 133° |
| 2026-04-12 21:32 | 26.15075 | -81.77196 | 8 ft | 14 kts | 225° |
| 2026-04-12 21:32 | 26.15116 | -81.77299 | 8 ft | 18 kts | 313° |
| 2026-04-12 21:33 | 26.15208 | -81.77426 | 8 ft | 18 kts | 263° |
| 2026-04-12 21:33 | 26.15126 | -81.77533 | 8 ft | 22 kts | 224° |
| 2026-04-12 21:33 | 26.15013 | -81.77664 | 8 ft | 19 kts | 260° |
| 2026-04-12 21:33 | 26.15108 | -81.77722 | 8 ft | 18 kts | 39° |
| 2026-04-12 21:34 | 26.15357 | -81.77438 | 8 ft | 98 kts | 43° |
| 2026-04-12 21:34 | 26.16021 | -81.76759 | 459 ft | 141 kts | 44° |
| 2026-04-12 21:34 | 26.16484 | -81.76408 | 1812 ft | 86 kts | 42° |
| 2026-04-12 21:34 | 26.17197 | -81.75832 | 1680 ft | 132 kts | 41° |
| 2026-04-12 21:35 | 26.17938 | -81.75277 | 2423 ft | 150 kts | 34° |
| 2026-04-12 21:35 | 26.19161 | -81.74918 | 2080 ft | 197 kts | 8° |
| 2026-04-12 21:35 | 26.20565 | -81.74858 | 1987 ft | 203 kts | 7° |
| 2026-04-12 21:35 | 26.22111 | -81.74787 | 1785 ft | 237 kts | 7° |
| 2026-04-12 21:36 | 26.23488 | -81.74744 | 3379 ft | 200 kts | 8° |
| 2026-04-12 21:36 | 26.25037 | -81.74670 | 3448 ft | 240 kts | 7° |
| 2026-04-12 21:36 | 26.26398 | -81.74621 | 5512 ft | 186 kts | 7° |
| 2026-04-12 21:36 | 26.27790 | -81.74573 | 5706 ft | 233 kts | 7° |
| 2026-04-12 21:37 | 26.29250 | -81.74515 | 7462 ft | 193 kts | 7° |
| 2026-04-12 21:37 | 26.29932 | -81.74527 | 8901 ft | 144 kts | 6° |